PDT,Max TemperatureF,Mean TemperatureF,Min TemperatureF,Max Dew PointF,MeanDew PointF,Min DewpointF,Max Humidity, Mean Humidity, Min Humidity, Max Sea Level PressureIn, Mean Sea Level PressureIn, Min Sea Level PressureIn, Max VisibilityMiles, Mean VisibilityMiles, Min VisibilityMiles, Max Wind SpeedMPH, Mean Wind SpeedMPH, Max Gust SpeedMPH,PrecipitationIn, CloudCover, Events, WindDirDegrees
2013-7-1,114,100,88,48,46,41,23,17,11,29.82,29.73,29.66,10,10,10,20,11,24,0.00,0,Thunderstorm,249
2013-7-2,113,96,82,47,44,40,25,17,11,29.93,29.80,29.71,10,10,10,25,15,34,0.00,0,Thunderstorm,268
2013-7-3,113,99,87,51,47,44,26,18,10,29.79,29.70,29.58,10,10,10,24,16,32,0.00,0,,265
2013-7-4,114,98,82,50,47,45,29,19,10,29.80,29.63,29.53,10,10,10,25,14,32,0.00,0,,267
2013-7-5,111,96,82,51,48,39,32,20,9,29.68,29.62,29.55,10,10,10,23,14,26,0.00,0,,262
2013-7-6,108,94,80,50,45,31,32,20,9,29.80,29.66,29.57,10,10,10,22,7,17,0.00,0,Thunderstorm,287
2013-7-7,109,94,78,45,38,31,29,15,7,29.74,29.68,29.61,10,10,10,24,13,33,0.00,0,,271
2013-7-8,109,94,79,40,34,29,23,12,6,29.86,29.81,29.74,10,10,10,24,11,29,0.00,0,,274
2013-7-9,109,92,77,42,34,29,21,13,7,29.96,29.88,29.80,10,10,10,21,12,25,0.00,0,,278
2013-7-10,108,96,86,44,39,37,19,14,10,29.86,29.80,29.71,10,10,10,24,13,31,0.00,0,,280
2013-7-11,93,88,82,58,49,42,38,26,19,29.87,29.80,29.75,10,10,10,17,11,,0.00,2,,286
2013-7-12,100,88,77,53,47,28,43,26,10,29.86,29.80,29.70,10,10,10,21,7,28,0.00,1,,268
2013-7-13,105,90,75,42,38,34,26,17,11,29.87,29.81,29.73,10,10,10,18,10,17,0.00,0,,293
2013-7-14,107,93,79,44,38,34,22,15,11,29.86,29.78,29.68,10,10,10,21,13,25,0.00,0,,279
2013-7-15,108,93,79,50,39,34,22,15,11,29.77,29.72,29.63,10,10,10,30,15,38,0.00,0,,271
2013-7-16,102,88,73,39,26,16,24,12,4,29.87,29.79,29.74,10,10,10,23,14,25,0.00,0,,264
2013-7-17,104,86,70,33,26,20,19,12,5,29.96,29.90,29.82,10,10,10,14,10,,0.00,0,,283
2013-7-18,107,89,71,38,29,22,18,12,6,29.92,29.84,29.73,10,10,10,15,11,,0.00,0,,281
2013-7-19,111,92,75,40,37,30,23,15,8,29.83,29.75,29.63,10,10,10,15,10,,0.00,0,,268
2013-7-20,102,92,84,64,53,36,40,26,16,29.80,29.71,29.64,10,10,10,22,9,25,0.00,0,,44
2013-7-21,97,86,77,67,64,57,66,49,30,29.88,29.78,29.73,10,10,10,23,11,34,0.00,1,Rain-Thunderstorm,79
2013-7-22,95,85,75,68,64,58,73,54,36,29.95,29.87,29.80,10,10,3,30,6,44,0.24,2,Rain-Thunderstorm,299
2013-7-23,100,86,73,65,60,52,73,43,20,29.94,29.86,29.77,10,10,10,17,9,,0.00,0,,281
2013-7-24,107,92,78,55,52,45,42,27,14,29.86,29.80,29.70,10,10,10,22,13,30,0.00,0,,283
2013-7-25,109,94,80,50,47,39,34,21,13,29.91,29.82,29.74,10,10,10,23,13,29,0.00,0,,273
2013-7-26,99,92,84,59,52,49,34,26,18,29.99,29.91,29.85,10,10,10,24,12,25,0.00,1,,262
2013-7-27,102,91,82,61,54,48,41,29,21,29.93,29.84,29.72,10,10,10,13,7,,0.00,4,,282
2013-7-28,105,91,80,50,45,38,35,22,11,29.78,29.72,29.63,10,10,10,22,10,26,0.00,0,,277
2013-7-29,104,88,73,37,32,23,22,14,6,29.90,29.82,29.76,10,10,10,20,11,21,0.00,0,,274
2013-7-30,105,88,73,49,41,34,27,19,13,29.99,29.92,29.83,10,10,10,18,9,24,0.00,0,,272
2013-7-31,106,89,73,49,41,25,35,21,9,29.98,29.89,29.77,10,10,10,24,11,34,0.00,0,,280